createdAt,value
2022-11-18T00:01:43.659Z,9.34
2022-11-18T00:04:11.931Z,9.35
2022-11-18T00:06:42.919Z,9.32
2022-11-18T00:09:11.299Z,9.32
2022-11-18T00:12:06.645Z,9.32
2022-11-18T00:14:34.695Z,9.36
2022-11-18T00:17:04.378Z,9.39
2022-11-18T00:19:39.955Z,9.38
2022-11-18T00:22:12.676Z,9.36
2022-11-18T00:24:40.545Z,9.36
2022-11-18T00:27:08.571Z,9.36
2022-11-18T00:29:36.655Z,9.39
2022-11-18T00:32:08.964Z,9.38
2022-11-18T00:34:42.876Z,9.39
2022-11-18T00:37:11.164Z,9.36
2022-11-18T00:39:44.039Z,9.34
2022-11-18T00:42:33.720Z,9.35
2022-11-18T00:45:01.778Z,9.37
2022-11-18T00:47:33.979Z,9.39
2022-11-18T00:50:05.103Z,9.35
2022-11-18T00:52:33.156Z,9.34
2022-11-18T00:55:10.280Z,9.33
2022-11-18T00:57:38.686Z,9.34
2022-11-18T01:00:11.672Z,9.32
2022-11-18T01:02:44.332Z,9.34
2022-11-18T01:05:12.471Z,9.28
2022-11-18T01:07:44.615Z,9.26
2022-11-18T01:10:15.758Z,9.28
2022-11-18T01:13:01.987Z,9.31
2022-11-18T01:15:31.214Z,9.34
2022-11-18T01:17:59.109Z,9.37
2022-11-18T01:20:33.288Z,9.38
2022-11-18T01:23:09.091Z,9.41
2022-11-18T01:25:41.520Z,9.40
2022-11-18T01:28:18.884Z,9.42
2022-11-18T01:30:51.348Z,9.41
2022-11-18T01:33:19.463Z,9.39
2022-11-18T01:35:47.692Z,9.38
2022-11-18T01:38:20.860Z,9.38
2022-11-18T01:40:53.275Z,9.35
2022-11-18T01:43:21.946Z,9.38
2022-11-18T01:45:54.326Z,9.34
2022-11-18T01:48:35.159Z,9.34
2022-11-18T01:51:15.661Z,9.33
2022-11-18T01:53:55.760Z,9.34
2022-11-18T01:56:25.657Z,9.39
2022-11-18T01:59:05.722Z,9.37
2022-11-18T02:01:34.061Z,9.35
2022-11-18T02:04:02.169Z,9.32
2022-11-18T02:06:32.861Z,9.35
2022-11-18T02:09:03.518Z,9.33
2022-11-18T02:11:49.795Z,9.30
2022-11-18T02:14:20.884Z,9.23
2022-11-18T02:17:26.113Z,9.23
2022-11-18T02:20:18.413Z,9.16
2022-11-18T02:23:04.800Z,9.12
2022-11-18T02:25:35.957Z,9.10
2022-11-18T02:28:22.634Z,9.10
2022-11-18T02:31:04.784Z,9.06
2022-11-18T02:33:56.718Z,9.04
2022-11-18T02:36:48.057Z,9.02
2022-11-18T02:39:36.268Z,9.01
2022-11-18T02:42:06.002Z,9.02
2022-11-18T02:44:37.071Z,8.97
2022-11-18T02:47:06.738Z,8.94
2022-11-18T02:49:40.260Z,8.97
2022-11-18T02:52:19.522Z,9.00
2022-11-18T02:54:52.479Z,9.01
2022-11-18T02:57:23.725Z,8.96
2022-11-18T02:59:51.884Z,9.00
2022-11-18T03:02:21.030Z,9.01
2022-11-18T03:04:49.243Z,8.98
2022-11-18T03:07:33.106Z,8.98
2022-11-18T03:10:01.418Z,8.98
2022-11-18T03:12:47.005Z,8.99
2022-11-18T03:15:20.884Z,9.02
2022-11-18T03:18:09.302Z,9.02
2022-11-18T03:21:09.851Z,9.03
2022-11-18T03:24:07.861Z,9.04
2022-11-18T03:26:41.211Z,9.01
2022-11-18T03:29:17.149Z,9.03
2022-11-18T03:31:57.128Z,9.03
2022-11-18T03:34:46.105Z,9.01
2022-11-18T03:37:15.971Z,9.00
2022-11-18T03:39:55.362Z,8.98
2022-11-18T03:42:33.255Z,8.91
2022-11-18T03:45:07.958Z,8.90
2022-11-18T03:47:47.571Z,8.83
2022-11-18T03:50:35.213Z,8.80
2022-11-18T03:53:09.731Z,8.77
2022-11-18T03:55:42.022Z,8.77
2022-11-18T03:58:40.692Z,8.76
2022-11-18T04:01:19.268Z,8.68
2022-11-18T04:03:51.713Z,8.68
2022-11-18T04:06:56.519Z,8.67
2022-11-18T04:09:31.032Z,8.64
2022-11-18T04:12:04.386Z,8.61
2022-11-18T04:14:40.527Z,8.59
2022-11-18T04:17:21.016Z,8.60
2022-11-18T04:19:59.649Z,8.56
2022-11-18T04:22:30.836Z,8.51
2022-11-18T04:24:59.736Z,8.44
2022-11-18T04:27:32.584Z,8.47
2022-11-18T04:30:05.511Z,8.43
2022-11-18T04:32:38.123Z,8.42
2022-11-18T04:35:09.445Z,8.42
2022-11-18T04:37:37.716Z,8.42
2022-11-18T04:40:06.681Z,8.42
2022-11-18T04:42:39.067Z,8.42
2022-11-18T04:45:11.628Z,8.42
2022-11-18T04:47:39.703Z,8.44
2022-11-18T04:50:08.207Z,8.46
2022-11-18T04:52:38.352Z,8.47
2022-11-18T04:55:06.719Z,8.46
2022-11-18T04:57:35.917Z,8.44
2022-11-18T05:00:21.690Z,8.45
2022-11-18T05:02:50.120Z,8.47
2022-11-18T05:05:21.827Z,8.46
2022-11-18T05:07:49.896Z,8.46
2022-11-18T05:10:18.226Z,8.43
2022-11-18T05:12:53.015Z,8.42
2022-11-18T05:15:26.188Z,8.39
2022-11-18T05:17:59.261Z,8.37
2022-11-18T05:20:27.215Z,8.37
2022-11-18T05:22:55.395Z,8.37
2022-11-18T05:25:33.990Z,8.32
2022-11-18T05:28:05.281Z,8.32
2022-11-18T05:30:46.862Z,8.33
2022-11-18T05:33:19.728Z,8.30
2022-11-18T05:35:52.381Z,8.30
2022-11-18T05:38:22.961Z,8.29
2022-11-18T05:40:53.632Z,8.29
2022-11-18T05:43:26.389Z,8.31
2022-11-18T05:45:56.059Z,8.24
2022-11-18T05:48:25.129Z,8.25
2022-11-18T05:50:54.393Z,8.23
2022-11-18T05:53:25.074Z,8.21
2022-11-18T05:56:09.061Z,8.23
2022-11-18T05:58:37.227Z,8.21
2022-11-18T06:01:06.380Z,8.22
2022-11-18T06:03:35.989Z,8.20
2022-11-18T06:06:08.592Z,8.22
2022-11-18T06:08:40.984Z,8.22
2022-11-18T06:11:13.852Z,8.23
2022-11-18T06:14:05.120Z,8.24
2022-11-18T06:16:37.855Z,8.22
2022-11-18T06:19:09.339Z,8.19
2022-11-18T06:21:37.450Z,8.16
2022-11-18T06:24:05.930Z,8.16
2022-11-18T06:26:34.149Z,8.15
2022-11-18T06:29:06.411Z,8.18
2022-11-18T06:31:34.487Z,8.17
2022-11-18T06:34:06.909Z,8.18
2022-11-18T06:36:39.784Z,8.20
2022-11-18T06:39:13.855Z,8.18
2022-11-18T06:41:42.304Z,8.19
2022-11-18T06:44:12.267Z,8.21
2022-11-18T06:46:57.100Z,8.17
2022-11-18T06:49:32.639Z,8.15
2022-11-18T06:52:01.879Z,8.16
2022-11-18T06:54:34.634Z,8.19
2022-11-18T06:57:03.027Z,8.13
2022-11-18T06:59:34.169Z,8.12
2022-11-18T07:02:02.213Z,8.09
2022-11-18T07:04:30.667Z,8.09
2022-11-18T07:07:01.763Z,8.06
2022-11-18T07:09:29.693Z,8.16
2022-11-18T07:11:58.079Z,8.42
2022-11-18T07:14:25.843Z,8.68
2022-11-18T07:16:53.580Z,8.62
2022-11-18T07:19:21.830Z,8.72
2022-11-18T07:21:50.763Z,8.89
2022-11-18T07:24:18.734Z,8.74
2022-11-18T07:26:49.398Z,8.60
2022-11-18T07:29:20.384Z,8.46
2022-11-18T07:31:52.955Z,8.43
2022-11-18T07:34:26.650Z,8.28
2022-11-18T07:36:59.729Z,8.21
2022-11-18T07:39:31.971Z,8.07
2022-11-18T07:42:00.103Z,8.07
2022-11-18T07:44:32.816Z,7.98
2022-11-18T07:47:01.203Z,8.00
2022-11-18T07:49:29.473Z,7.97
2022-11-18T07:51:58.939Z,8.00
2022-11-18T07:54:32.042Z,8.01
2022-11-18T07:57:10.949Z,8.08
2022-11-18T07:59:38.953Z,8.21
2022-11-18T08:02:08.521Z,8.46
2022-11-18T08:04:38.851Z,8.50
2022-11-18T08:07:06.899Z,8.52
2022-11-18T08:09:37.770Z,8.55
2022-11-18T08:12:06.126Z,8.60
2022-11-18T08:14:34.460Z,8.73
2022-11-18T08:17:03.564Z,8.71
2022-11-18T08:19:36.700Z,8.77
2022-11-18T08:22:09.191Z,8.77
2022-11-18T08:24:37.454Z,8.84
2022-11-18T08:27:09.532Z,8.86
2022-11-18T08:29:37.650Z,8.88
2022-11-18T08:32:06.739Z,8.92
2022-11-18T08:34:40.587Z,8.99
2022-11-18T08:37:08.715Z,8.97
2022-11-18T08:39:36.827Z,8.92
2022-11-18T08:42:10.406Z,8.94
2022-11-18T08:44:38.795Z,8.98
2022-11-18T08:47:06.832Z,9.00
2022-11-18T08:49:34.913Z,9.01
2022-11-18T08:52:02.691Z,9.01
2022-11-18T08:54:30.551Z,9.07
2022-11-18T08:56:58.432Z,9.11
2022-11-18T08:59:26.285Z,9.15
2022-11-18T09:01:54.316Z,9.16
2022-11-18T09:04:22.421Z,9.18
2022-11-18T09:06:50.186Z,9.22
2022-11-18T09:09:17.983Z,9.21
2022-11-18T09:11:45.922Z,9.24
2022-11-18T09:15:11.696Z,9.26
2022-11-18T09:17:01.950Z,9.24
2022-11-18T09:19:46.584Z,9.18
2022-11-18T09:22:15.528Z,9.13
2022-11-18T09:24:46.599Z,9.13
2022-11-18T09:27:17.614Z,9.19
2022-11-18T09:29:46.788Z,9.21
2022-11-18T09:32:14.958Z,9.20
2022-11-18T09:34:43.002Z,9.25
2022-11-18T09:37:10.887Z,9.26
2022-11-18T09:39:38.766Z,9.27
2022-11-18T09:42:10.078Z,9.25
2022-11-18T09:45:13.344Z,9.28
2022-11-18T09:47:41.851Z,9.31
2022-11-18T09:50:48.634Z,9.25
2022-11-18T09:53:29.135Z,9.27
2022-11-18T09:55:56.940Z,9.24
2022-11-18T09:58:42.952Z,9.28
2022-11-18T10:01:15.153Z,9.26
2022-11-18T10:03:43.098Z,9.30
2022-11-18T10:06:11.326Z,9.23
2022-11-18T10:08:56.675Z,9.34
2022-11-18T10:11:51.937Z,9.43
2022-11-18T10:14:34.153Z,9.43
2022-11-18T10:17:14.593Z,9.48
2022-11-18T10:19:54.539Z,9.54
2022-11-18T10:22:28.476Z,9.49
2022-11-18T10:24:57.730Z,9.39
2022-11-18T10:27:36.258Z,9.50
2022-11-18T10:30:08.520Z,9.59
2022-11-18T10:32:36.486Z,9.70
2022-11-18T10:35:04.627Z,9.72
2022-11-18T10:38:00.640Z,9.69
2022-11-18T10:40:27.039Z,9.65
2022-11-18T10:42:55.046Z,9.70
2022-11-18T10:45:22.819Z,9.69
2022-11-18T10:48:19.757Z,9.74
2022-11-18T10:50:55.993Z,9.74
2022-11-18T10:53:29.973Z,9.75
2022-11-18T10:56:08.429Z,9.76
2022-11-18T10:58:41.812Z,9.83
2022-11-18T11:01:23.610Z,9.83
2022-11-18T11:04:22.174Z,9.87
2022-11-18T11:06:50.640Z,9.85
2022-11-18T11:09:28.961Z,9.82
2022-11-18T11:12:20.574Z,9.74
2022-11-18T11:14:58.743Z,9.73
2022-11-18T11:17:30.217Z,9.66
2022-11-18T11:20:25.013Z,9.70
2022-11-18T11:22:57.767Z,9.62
2022-11-18T11:28:23.086Z,9.68
2022-11-18T11:31:12.400Z,9.77
2022-11-18T11:34:18.431Z,9.85
2022-11-18T11:36:53.378Z,9.85
2022-11-18T11:39:41.287Z,9.88
2022-11-18T11:42:49.131Z,9.86
2022-11-18T11:45:42.858Z,9.85
2022-11-18T11:48:31.891Z,9.86
2022-11-18T11:51:14.203Z,9.84
2022-11-18T11:53:45.147Z,9.79
2022-11-18T11:56:22.597Z,9.77
2022-11-18T11:59:03.031Z,9.74
2022-11-18T12:01:41.828Z,9.72
2022-11-18T12:04:21.393Z,9.67
2022-11-18T12:07:01.640Z,9.61
2022-11-18T12:09:46.695Z,9.54
2022-11-18T12:12:37.746Z,9.51
2022-11-18T12:15:17.820Z,9.55
2022-11-18T12:17:57.682Z,9.64
2022-11-18T12:20:42.153Z,9.70
2022-11-18T12:23:24.004Z,9.75
2022-11-18T12:25:54.528Z,9.52
2022-11-18T12:28:43.557Z,9.30
2022-11-18T12:31:20.459Z,9.26
2022-11-18T12:33:49.863Z,9.31
2022-11-18T12:36:43.539Z,9.63
2022-11-18T12:39:29.308Z,9.87
2022-11-18T12:42:19.755Z,9.85
2022-11-18T12:44:53.209Z,9.78
2022-11-18T12:47:42.731Z,9.75
2022-11-18T12:50:22.642Z,9.74
2022-11-18T12:52:53.899Z,9.69
2022-11-18T12:55:33.865Z,9.74
2022-11-18T12:58:01.978Z,9.74
2022-11-18T13:00:34.950Z,9.75
2022-11-18T13:03:04.119Z,9.77
2022-11-18T13:05:33.863Z,9.77
2022-11-18T13:08:14.858Z,9.61
2022-11-18T13:10:54.904Z,9.66
2022-11-18T13:13:34.090Z,9.69
2022-11-18T13:16:43.295Z,9.76
2022-11-18T13:19:15.768Z,9.80
2022-11-18T13:22:02.454Z,9.82
2022-11-18T13:24:35.918Z,9.79
2022-11-18T13:27:06.999Z,9.82
2022-11-18T13:29:58.368Z,9.79
2022-11-18T13:32:28.385Z,9.73
2022-11-18T13:35:00.782Z,9.76
2022-11-18T13:37:32.870Z,9.72
2022-11-18T13:40:05.401Z,9.73
2022-11-18T13:42:36.777Z,9.77
2022-11-18T13:45:09.419Z,9.78
2022-11-18T13:47:42.571Z,9.73
2022-11-18T13:50:23.590Z,9.68
2022-11-18T13:53:16.435Z,9.64
2022-11-18T13:55:59.405Z,9.56
2022-11-18T13:58:40.076Z,9.62
2022-11-18T14:01:34.423Z,9.68
2022-11-18T14:04:06.696Z,9.68
2022-11-18T14:06:35.619Z,9.69
2022-11-18T14:09:18.449Z,9.64
2022-11-18T14:12:10.691Z,9.69
2022-11-18T14:14:39.926Z,9.53
2022-11-18T14:17:22.202Z,9.53
2022-11-18T14:19:51.952Z,9.52
2022-11-18T14:22:23.601Z,9.46
2022-11-18T14:25:25.649Z,9.43
2022-11-18T14:28:25.140Z,9.29
2022-11-18T14:31:23.578Z,9.28
2022-11-18T14:34:13.138Z,9.24
2022-11-18T14:36:46.470Z,9.18
2022-11-18T14:39:27.089Z,9.18
2022-11-18T14:41:56.227Z,9.16
2022-11-18T14:44:25.572Z,9.17
2022-11-18T14:47:00.441Z,9.16
2022-11-18T14:49:28.678Z,9.13
2022-11-18T14:51:56.586Z,9.12
2022-11-18T14:54:27.419Z,9.03
2022-11-18T14:57:01.618Z,9.05
2022-11-18T14:59:29.406Z,9.09
2022-11-18T15:01:57.581Z,9.08
2022-11-18T15:04:26.538Z,9.00
2022-11-18T15:06:54.587Z,8.94
2022-11-18T15:09:22.458Z,8.92
2022-11-18T15:11:50.310Z,8.86
2022-11-18T15:14:18.252Z,8.82
2022-11-18T15:16:46.240Z,8.83
2022-11-18T15:19:16.274Z,8.84
2022-11-18T15:21:45.016Z,8.87
2022-11-18T15:24:12.844Z,8.85
2022-11-18T15:26:42.225Z,8.84
2022-11-18T15:29:19.438Z,8.87
2022-11-18T15:31:47.719Z,8.88
2022-11-18T15:34:15.861Z,8.86
2022-11-18T15:36:43.717Z,8.80
2022-11-18T15:39:11.859Z,8.80
2022-11-18T15:41:40.825Z,8.77
2022-11-18T15:44:10.520Z,8.74
2022-11-18T15:46:38.308Z,8.77
2022-11-18T15:49:09.282Z,8.72
2022-11-18T15:51:37.623Z,8.71
2022-11-18T15:54:05.398Z,8.70
2022-11-18T15:56:33.966Z,8.70
2022-11-18T15:59:08.842Z,8.69
2022-11-18T16:01:38.464Z,8.68
2022-11-18T16:04:07.696Z,8.65
2022-11-18T16:06:35.550Z,8.62
2022-11-18T16:09:03.523Z,8.60
2022-11-18T16:11:49.997Z,8.57
2022-11-18T16:14:19.304Z,8.58
2022-11-18T16:16:48.547Z,8.57
2022-11-18T16:19:18.242Z,8.49
2022-11-18T16:21:48.151Z,8.42
2022-11-18T16:24:18.880Z,8.45
2022-11-18T16:26:46.881Z,8.41
2022-11-18T16:29:17.459Z,8.41
2022-11-18T16:31:51.520Z,8.38
2022-11-18T16:34:24.135Z,8.46
2022-11-18T16:36:53.509Z,8.48
2022-11-18T16:39:25.790Z,8.51
2022-11-18T16:41:55.217Z,8.55
2022-11-18T16:44:23.099Z,8.57
2022-11-18T16:46:56.060Z,8.60
2022-11-18T16:49:25.759Z,8.54
2022-11-18T16:51:54.719Z,8.56
2022-11-18T16:54:24.445Z,8.51
2022-11-18T16:56:53.360Z,8.51
2022-11-18T16:59:28.008Z,8.52
2022-11-18T17:01:56.675Z,8.52
2022-11-18T17:04:25.682Z,8.55
2022-11-18T17:06:53.632Z,8.55
2022-11-18T17:09:23.105Z,8.47
2022-11-18T17:11:51.378Z,8.38
2022-11-18T17:14:20.661Z,8.38
2022-11-18T17:16:48.461Z,8.40
2022-11-18T17:19:24.030Z,8.41
2022-11-18T17:21:52.295Z,8.43
2022-11-18T17:24:22.067Z,8.43
2022-11-18T17:26:50.535Z,8.38
2022-11-18T17:29:18.587Z,8.40
2022-11-18T17:31:46.559Z,8.35
2022-11-18T17:34:15.291Z,8.27
2022-11-18T17:36:43.498Z,8.24
2022-11-18T17:39:12.249Z,8.25
2022-11-18T17:41:58.737Z,8.25
2022-11-18T17:44:26.549Z,8.29
2022-11-18T17:46:54.228Z,8.49
2022-11-18T17:49:23.171Z,8.46
2022-11-18T17:51:52.283Z,8.41
2022-11-18T17:54:21.219Z,8.39
2022-11-18T17:56:49.436Z,8.40
2022-11-18T17:59:18.627Z,8.41
2022-11-18T18:01:46.855Z,8.40
2022-11-18T18:04:21.588Z,8.40
2022-11-18T18:06:53.065Z,8.41
2022-11-18T18:09:24.101Z,8.39
2022-11-18T18:11:56.557Z,8.39
2022-11-18T18:14:24.400Z,8.41
2022-11-18T18:16:52.270Z,8.42
2022-11-18T18:19:21.483Z,8.41
2022-11-18T18:21:49.601Z,8.44
2022-11-18T18:24:19.422Z,8.45
2022-11-18T18:26:48.430Z,8.43
2022-11-18T18:29:16.504Z,8.44
2022-11-18T18:31:44.603Z,8.45
2022-11-18T18:34:13.081Z,8.44
2022-11-18T18:36:41.308Z,8.46
2022-11-18T18:39:09.368Z,8.45
2022-11-18T18:41:37.522Z,8.46
2022-11-18T18:44:05.485Z,8.47
2022-11-18T18:46:33.582Z,8.50
2022-11-18T18:49:14.814Z,8.50
2022-11-18T18:51:44.232Z,8.49
2022-11-18T18:54:14.100Z,8.48
2022-11-18T18:56:42.027Z,8.48
2022-11-18T18:59:09.970Z,8.51
2022-11-18T19:01:38.262Z,8.47
2022-11-18T19:04:07.346Z,8.45
2022-11-18T19:09:27.331Z,8.44
2022-11-18T19:12:13.952Z,8.43
2022-11-18T19:14:41.922Z,8.43
2022-11-18T19:17:11.791Z,8.46
2022-11-18T19:19:59.703Z,8.48
2022-11-18T19:22:27.782Z,8.46
2022-11-18T19:24:56.129Z,8.44
2022-11-18T19:27:24.360Z,8.46
2022-11-18T19:29:52.354Z,8.46
2022-11-18T19:32:20.202Z,8.47
2022-11-18T19:34:49.973Z,8.47
2022-11-18T19:37:17.983Z,8.46
2022-11-18T19:39:45.954Z,8.45
2022-11-18T19:42:13.927Z,8.42
2022-11-18T19:44:41.667Z,8.42
2022-11-18T19:47:09.490Z,8.44
2022-11-18T19:49:37.343Z,8.44
2022-11-18T19:52:05.167Z,8.40
2022-11-18T19:54:36.067Z,8.41
2022-11-18T19:57:05.094Z,8.37
2022-11-18T19:59:33.124Z,8.38
2022-11-18T20:02:01.522Z,8.37
2022-11-18T20:04:32.202Z,8.38
2022-11-18T20:07:00.449Z,8.36
2022-11-18T20:09:28.712Z,8.37
2022-11-18T20:11:56.786Z,8.35
2022-11-18T20:14:24.915Z,8.29
2022-11-18T20:16:57.535Z,8.29
2022-11-18T20:19:26.445Z,8.33
2022-11-18T20:21:54.722Z,8.27
2022-11-18T20:24:27.816Z,8.28
2022-11-18T20:27:00.265Z,8.27
2022-11-18T20:29:28.948Z,8.22
2022-11-18T20:32:01.671Z,8.21
2022-11-18T20:34:30.464Z,8.20
2022-11-18T20:36:58.543Z,8.21
2022-11-18T20:39:26.914Z,8.21
2022-11-18T20:42:13.389Z,8.23
2022-11-18T20:44:41.236Z,8.23
2022-11-18T20:47:09.023Z,8.24
2022-11-18T20:49:36.889Z,8.25
2022-11-18T20:52:04.685Z,8.25
2022-11-18T20:54:32.809Z,8.22
2022-11-18T20:57:00.630Z,8.22
2022-11-18T20:59:28.559Z,8.13
2022-11-18T21:01:56.415Z,8.13
2022-11-18T21:04:24.491Z,8.05
2022-11-18T21:07:01.918Z,8.09
2022-11-18T21:09:33.139Z,8.12
2022-11-18T21:12:01.001Z,8.09
2022-11-18T21:14:28.933Z,8.09
2022-11-18T21:17:04.403Z,8.07
2022-11-18T21:19:34.094Z,8.07
2022-11-18T21:22:02.111Z,8.06
2022-11-18T21:24:30.838Z,8.08
2022-11-18T21:26:59.093Z,8.09
2022-11-18T21:29:28.330Z,8.09
2022-11-18T21:31:58.603Z,8.07
2022-11-18T21:34:26.504Z,8.03
2022-11-18T21:36:55.349Z,8.03
2022-11-18T21:39:28.642Z,8.00
2022-11-18T21:41:57.688Z,8.00
2022-11-18T21:44:26.182Z,8.01
2022-11-18T21:46:54.298Z,7.99
2022-11-18T21:49:22.888Z,8.01
2022-11-18T21:51:50.951Z,7.97
2022-11-18T21:54:19.482Z,7.93
2022-11-18T21:56:47.489Z,7.90
2022-11-18T21:59:15.468Z,7.85
2022-11-18T22:01:43.309Z,7.81
2022-11-18T22:04:31.244Z,7.78
2022-11-18T22:07:03.343Z,7.76
2022-11-18T22:09:36.106Z,7.76
2022-11-18T22:12:06.198Z,7.70
2022-11-18T22:14:34.184Z,7.70
2022-11-18T22:17:01.974Z,7.71
2022-11-18T22:19:30.330Z,7.68
2022-11-18T22:21:58.217Z,7.64
2022-11-18T22:24:26.897Z,7.57
2022-11-18T22:26:54.795Z,7.54
2022-11-18T22:29:24.520Z,7.54
2022-11-18T22:31:52.338Z,7.48
2022-11-18T22:34:20.802Z,7.46
2022-11-18T22:36:53.384Z,7.44
2022-11-18T22:39:21.845Z,7.37
2022-11-18T22:42:08.883Z,7.33
2022-11-18T22:44:36.815Z,7.28
2022-11-18T22:47:04.583Z,7.27
2022-11-18T22:49:32.506Z,7.25
2022-11-18T22:52:00.359Z,7.23
2022-11-18T22:54:38.821Z,7.21
2022-11-18T22:57:12.118Z,7.20
2022-11-18T22:59:39.936Z,7.19
2022-11-18T23:02:08.042Z,7.15
2022-11-18T23:04:35.854Z,7.12
2022-11-18T23:07:06.514Z,7.08
2022-11-18T23:09:34.429Z,7.09
2022-11-18T23:12:20.919Z,7.07
2022-11-18T23:14:48.740Z,7.07
2022-11-18T23:17:17.151Z,7.06
2022-11-18T23:19:48.416Z,7.08
2022-11-18T23:22:16.254Z,7.07
2022-11-18T23:24:44.192Z,7.03
2022-11-18T23:27:12.896Z,7.01
2022-11-18T23:29:40.699Z,6.97
2022-11-18T23:32:08.572Z,6.91
2022-11-18T23:34:36.580Z,6.87
2022-11-18T23:37:04.489Z,6.85
2022-11-18T23:39:32.400Z,6.85
2022-11-18T23:42:00.264Z,6.83
2022-11-18T23:44:46.249Z,6.80
2022-11-18T23:47:14.560Z,6.77
2022-11-18T23:49:42.493Z,6.76
2022-11-18T23:52:10.418Z,6.75
2022-11-18T23:54:41.464Z,6.72
2022-11-18T23:57:09.307Z,6.70
2022-11-18T23:59:37.278Z,6.67
